createdAt,value
2019-02-22T00:01:48.176Z,47.07
2019-02-22T00:04:51.589Z,47.87
2019-02-22T00:07:55.096Z,47.07
2019-02-22T00:10:58.528Z,46.77
2019-02-22T00:14:02.256Z,44.23
2019-02-22T00:17:05.680Z,45.07
2019-02-22T00:20:09.121Z,45.50
2019-02-22T00:23:12.551Z,45.37
2019-02-22T00:26:16.010Z,45.03
2019-02-22T00:29:19.420Z,45.13
2019-02-22T00:32:22.914Z,43.23
2019-02-22T00:35:26.337Z,44.77
2019-02-22T00:38:29.793Z,44.83
2019-02-22T00:41:33.279Z,45.17
2019-02-22T00:44:36.712Z,45.40
2019-02-22T00:47:40.124Z,45.00
2019-02-22T00:50:43.584Z,46.43
2019-02-22T00:53:47.019Z,44.20
2019-02-22T00:56:50.462Z,42.83
2019-02-22T00:59:53.871Z,40.60
2019-02-22T01:02:57.308Z,39.80
2019-02-22T01:06:00.720Z,40.10
2019-02-22T01:09:04.631Z,38.83
2019-02-22T01:12:08.034Z,38.63
2019-02-22T01:15:11.496Z,41.47
2019-02-22T01:18:14.913Z,37.83
2019-02-22T01:21:18.359Z,36.30
2019-02-22T01:24:21.776Z,35.03
2019-02-22T01:27:25.219Z,32.93
2019-02-22T01:30:28.641Z,33.47
2019-02-22T01:33:32.112Z,33.03
2019-02-22T01:36:35.570Z,30.07
2019-02-22T01:39:38.980Z,25.67
2019-02-22T01:42:42.429Z,20.30
2019-02-22T01:45:45.895Z,19.43
2019-02-22T01:48:49.359Z,18.67
2019-02-22T01:51:52.781Z,20.23
2019-02-22T01:54:56.246Z,21.57
2019-02-22T01:57:59.663Z,21.23
2019-02-22T02:01:03.280Z,20.83
2019-02-22T02:04:06.703Z,21.40
2019-02-22T02:07:10.143Z,21.87
2019-02-22T02:10:13.560Z,19.70
2019-02-22T02:13:17.004Z,19.37
2019-02-22T02:16:20.424Z,21.50
2019-02-22T02:19:23.877Z,20.03
2019-02-22T02:22:27.297Z,18.67
2019-02-22T02:25:30.745Z,20.27
2019-02-22T02:28:34.166Z,18.60
2019-02-22T02:31:37.613Z,17.63
2019-02-22T02:34:41.029Z,17.57
2019-02-22T02:37:44.470Z,15.87
2019-02-22T02:40:47.888Z,16.73
2019-02-22T02:43:51.328Z,16.40
2019-02-22T02:46:54.742Z,16.97
2019-02-22T02:49:58.181Z,15.53
2019-02-22T02:53:01.607Z,16.03
2019-02-22T02:56:05.071Z,14.90
2019-02-22T02:59:08.486Z,16.27
2019-02-22T03:02:13.579Z,14.07
2019-02-22T03:05:17.005Z,14.57
2019-02-22T03:08:21.126Z,14.30
2019-02-22T03:11:24.551Z,16.23
2019-02-22T03:14:27.981Z,15.40
2019-02-22T03:17:31.408Z,16.27
2019-02-22T03:20:34.849Z,15.53
2019-02-22T03:23:38.261Z,16.20
2019-02-22T03:26:41.701Z,14.93
2019-02-22T03:29:45.140Z,17.63
2019-02-22T03:32:48.576Z,16.77
2019-02-22T03:35:52.017Z,16.43
2019-02-22T03:38:55.438Z,18.00
2019-02-22T03:41:58.884Z,16.70
2019-02-22T03:45:02.311Z,17.93
2019-02-22T03:48:05.745Z,17.80
2019-02-22T03:51:09.211Z,18.50
2019-02-22T03:54:12.637Z,18.97
2019-02-22T03:57:16.077Z,18.90
2019-02-22T04:00:19.494Z,19.43
2019-02-22T04:03:22.954Z,20.13
2019-02-22T04:06:26.838Z,20.67
2019-02-22T04:09:30.280Z,21.43
2019-02-22T04:12:33.738Z,20.63
2019-02-22T04:15:37.157Z,20.20
2019-02-22T04:18:40.624Z,19.10
2019-02-22T04:21:44.041Z,18.67
2019-02-22T04:24:47.505Z,20.13
2019-02-22T04:27:50.926Z,20.40
2019-02-22T04:30:54.367Z,21.50
2019-02-22T04:33:57.790Z,22.73
2019-02-22T04:37:01.234Z,20.13
2019-02-22T04:40:05.895Z,20.00
2019-02-22T04:43:09.325Z,20.00
2019-02-22T04:46:12.750Z,19.23
2019-02-22T04:49:16.201Z,18.70
2019-02-22T04:52:19.638Z,19.63
2019-02-22T04:55:23.062Z,19.00
2019-02-22T04:58:26.545Z,18.33
2019-02-22T05:01:29.962Z,16.33
2019-02-22T05:04:33.397Z,17.07
2019-02-22T05:07:36.848Z,17.00
2019-02-22T05:10:40.264Z,17.83
2019-02-22T05:13:43.711Z,18.33
2019-02-22T05:16:47.153Z,18.73
2019-02-22T05:19:50.575Z,19.37
2019-02-22T05:23:03.361Z,18.00
2019-02-22T05:25:59.190Z,18.80
2019-02-22T05:29:02.890Z,17.93
2019-02-22T05:32:06.329Z,18.90
2019-02-22T05:35:09.745Z,18.37
2019-02-22T05:38:13.181Z,18.17
2019-02-22T05:41:16.637Z,19.30
2019-02-22T05:44:20.074Z,20.27
2019-02-22T05:47:23.501Z,18.70
2019-02-22T05:50:26.939Z,18.83
2019-02-22T05:53:30.357Z,18.57
2019-02-22T05:56:33.812Z,19.13
2019-02-22T05:59:37.229Z,18.77
2019-02-22T06:02:40.680Z,19.60
2019-02-22T06:05:44.127Z,19.07
2019-02-22T06:08:47.550Z,20.07
2019-02-22T06:11:51.003Z,19.47
2019-02-22T06:14:54.418Z,20.37
2019-02-22T06:17:57.860Z,19.70
2019-02-22T06:21:01.285Z,20.17
2019-02-22T06:24:04.910Z,21.47
2019-02-22T06:27:08.321Z,21.53
2019-02-22T06:30:11.775Z,20.87
2019-02-22T06:33:15.206Z,20.53
2019-02-22T06:36:18.645Z,22.03
2019-02-22T06:39:22.072Z,21.83
2019-02-22T06:42:25.517Z,22.50
2019-02-22T06:45:28.936Z,21.63
2019-02-22T06:48:32.380Z,21.83
2019-02-22T06:51:35.798Z,21.63
2019-02-22T06:54:42.893Z,21.37
2019-02-22T06:57:46.310Z,22.83
2019-02-22T07:00:49.755Z,21.37
2019-02-22T07:03:53.237Z,23.67
2019-02-22T07:06:56.715Z,21.37
2019-02-22T07:10:00.308Z,23.37
2019-02-22T07:13:05.388Z,21.83
2019-02-22T07:16:08.817Z,20.33
2019-02-22T07:19:12.266Z,22.57
2019-02-22T07:22:15.680Z,21.43
2019-02-22T07:25:19.149Z,20.10
2019-02-22T07:28:22.548Z,19.50
2019-02-22T07:31:25.990Z,19.27
2019-02-22T07:34:29.413Z,19.07
2019-02-22T07:37:32.852Z,19.20
2019-02-22T07:40:36.269Z,19.87
2019-02-22T07:43:39.735Z,19.87
2019-02-22T07:46:43.217Z,19.83
2019-02-22T07:49:46.674Z,21.03
2019-02-22T07:52:50.102Z,21.00
2019-02-22T07:55:53.548Z,21.03
2019-02-22T07:58:56.971Z,17.63
2019-02-22T08:02:00.421Z,15.17
2019-02-22T08:05:04.872Z,16.43
2019-02-22T08:08:08.334Z,15.40
2019-02-22T08:11:11.758Z,15.53
2019-02-22T08:14:15.197Z,14.47
2019-02-22T08:17:18.625Z,14.53
2019-02-22T08:20:22.054Z,14.50
2019-02-22T08:23:25.504Z,14.43
2019-02-22T08:26:28.916Z,13.27
2019-02-22T08:29:32.421Z,12.67
2019-02-22T08:32:35.848Z,12.83
2019-02-22T08:35:39.288Z,12.40
2019-02-22T08:38:42.701Z,12.97
2019-02-22T08:41:46.175Z,11.13
2019-02-22T08:44:49.644Z,10.90
2019-02-22T08:47:53.086Z,11.60
2019-02-22T08:50:56.505Z,11.03
2019-02-22T08:53:59.944Z,10.43
2019-02-22T08:57:03.357Z,9.90
2019-02-22T09:00:12.253Z,8.53
2019-02-22T09:03:15.665Z,8.80
2019-02-22T09:06:19.092Z,8.17
2019-02-22T09:09:22.519Z,5.60
2019-02-22T09:12:25.945Z,6.50
2019-02-22T09:15:29.377Z,5.67
2019-02-22T09:18:32.801Z,4.67
2019-02-22T09:21:36.233Z,5.77
2019-02-22T09:24:39.688Z,5.13
2019-02-22T09:27:43.109Z,5.30
2019-02-22T09:30:46.550Z,4.67
2019-02-22T09:33:49.989Z,6.23
2019-02-22T09:36:53.402Z,5.60
2019-02-22T09:39:56.926Z,5.63
2019-02-22T09:43:00.448Z,5.60
2019-02-22T09:46:04.069Z,5.27
2019-02-22T09:49:07.479Z,5.60
2019-02-22T09:52:10.905Z,5.20
2019-02-22T09:55:14.342Z,5.80
2019-02-22T09:58:17.760Z,5.13
2019-02-22T10:01:21.213Z,5.20
2019-02-22T10:04:24.633Z,5.27
2019-02-22T10:07:28.069Z,5.10
2019-02-22T10:10:31.480Z,4.70
2019-02-22T10:13:34.912Z,5.00
2019-02-22T10:16:38.323Z,5.00
2019-02-22T10:19:41.770Z,5.23
2019-02-22T10:22:45.180Z,5.63
2019-02-22T10:25:48.621Z,5.60
2019-02-22T10:28:52.029Z,5.30
2019-02-22T10:31:55.482Z,5.87
2019-02-22T10:34:58.900Z,6.40
2019-02-22T10:38:02.359Z,6.10
2019-02-22T10:41:05.772Z,5.80
2019-02-22T10:44:17.444Z,5.77
2019-02-22T10:47:14.371Z,6.63
2019-02-22T10:50:17.850Z,6.80
2019-02-22T10:53:21.288Z,7.00
2019-02-22T10:56:24.713Z,7.27
2019-02-22T10:59:28.145Z,8.03
2019-02-22T11:02:31.586Z,7.90
2019-02-22T11:05:35.009Z,7.87
2019-02-22T11:08:38.436Z,7.90
2019-02-22T11:11:41.884Z,7.20
2019-02-22T11:14:45.293Z,7.30
2019-02-22T11:17:48.741Z,8.27
2019-02-22T11:20:52.149Z,8.00
2019-02-22T11:23:55.628Z,7.97
2019-02-22T11:26:59.089Z,8.50
2019-02-22T11:30:02.544Z,8.00
2019-02-22T11:33:05.953Z,7.90
2019-02-22T11:36:09.397Z,8.87
2019-02-22T11:39:12.990Z,8.47
2019-02-22T11:42:16.427Z,8.00
2019-02-22T11:45:19.887Z,8.17
2019-02-22T11:48:23.292Z,8.23
2019-02-22T11:51:34.500Z,8.17
2019-02-22T11:54:37.980Z,6.50
2019-02-22T11:57:41.425Z,7.67
2019-02-22T12:00:44.849Z,6.90
2019-02-22T12:03:48.277Z,6.20
2019-02-22T12:06:51.686Z,6.40
2019-02-22T12:09:55.133Z,6.07
2019-02-22T12:12:58.544Z,6.67
2019-02-22T12:16:01.981Z,5.23
2019-02-22T12:19:05.413Z,5.30
2019-02-22T12:22:08.851Z,4.83
2019-02-22T12:25:29.853Z,3.77
2019-02-22T12:28:33.258Z,4.10
2019-02-22T12:31:36.702Z,7.83
2019-02-22T12:34:40.117Z,4.63
2019-02-22T12:37:43.557Z,4.70
2019-02-22T12:40:46.977Z,4.87
2019-02-22T12:43:50.412Z,4.77
2019-02-22T12:46:53.828Z,4.73
2019-02-22T12:49:57.269Z,4.97
2019-02-22T12:53:00.761Z,4.67
2019-02-22T12:56:04.215Z,4.93
2019-02-22T12:59:07.625Z,4.87
2019-02-22T13:02:11.176Z,5.00
2019-02-22T13:05:17.496Z,6.43
2019-02-22T13:08:20.940Z,5.40
2019-02-22T13:11:24.355Z,6.17
2019-02-22T13:14:27.784Z,6.33
2019-02-22T13:17:31.343Z,6.03
2019-02-22T13:20:34.824Z,5.73
2019-02-22T13:23:38.273Z,4.30
2019-02-22T13:26:41.674Z,5.47
2019-02-22T13:29:45.117Z,4.13
2019-02-22T13:32:48.534Z,3.47
2019-02-22T13:35:51.981Z,3.10
2019-02-22T13:38:55.389Z,3.13
2019-02-22T13:41:58.829Z,3.00
2019-02-22T13:45:03.488Z,3.10
2019-02-22T13:48:07.091Z,2.87
2019-02-22T13:51:10.505Z,3.40
2019-02-22T13:54:13.932Z,2.90
2019-02-22T13:57:17.349Z,3.33
2019-02-22T14:00:21.063Z,3.13
2019-02-22T14:03:24.468Z,3.07
2019-02-22T14:06:27.897Z,3.47
2019-02-22T14:09:31.309Z,3.03
2019-02-22T14:12:34.901Z,3.00
2019-02-22T14:15:38.584Z,3.07
2019-02-22T14:18:42.109Z,3.23
2019-02-22T14:21:45.525Z,3.70
2019-02-22T14:24:48.959Z,3.50
2019-02-22T14:27:52.375Z,4.10
2019-02-22T14:30:57.341Z,3.97
2019-02-22T14:34:00.752Z,4.23
2019-02-22T14:37:04.356Z,4.00
2019-02-22T14:40:16.713Z,3.80
2019-02-22T14:43:20.315Z,4.27
2019-02-22T14:46:26.117Z,4.43
2019-02-22T14:49:29.060Z,4.00
2019-02-22T14:52:43.413Z,3.93
2019-02-22T14:55:46.849Z,3.83
2019-02-22T14:58:50.281Z,4.10
2019-02-22T15:01:53.721Z,4.47
2019-02-22T15:04:57.157Z,5.20
2019-02-22T15:08:26.791Z,4.73
2019-02-22T15:11:31.225Z,4.50
2019-02-22T15:14:34.820Z,4.60
2019-02-22T15:17:42.821Z,5.00
2019-02-22T15:20:46.240Z,5.83
2019-02-22T15:23:49.673Z,5.87
2019-02-22T15:26:54.060Z,6.20
2019-02-22T15:29:57.816Z,6.00
2019-02-22T15:33:01.433Z,5.80
2019-02-22T15:36:05.981Z,5.30
2019-02-22T15:39:09.427Z,5.97
2019-02-22T15:42:12.837Z,5.93
2019-02-22T15:45:17.820Z,5.77
2019-02-22T15:48:21.221Z,6.00
2019-02-22T15:51:24.654Z,6.47
2019-02-22T15:54:28.081Z,5.80
2019-02-22T15:57:31.537Z,6.70
2019-02-22T16:00:35.889Z,6.57
2019-02-22T16:03:50.261Z,6.30
2019-02-22T16:06:53.769Z,6.97
2019-02-22T16:09:57.180Z,7.33
2019-02-22T16:13:00.622Z,8.07
2019-02-22T16:16:04.033Z,7.63
2019-02-22T16:19:07.468Z,8.03
2019-02-22T16:22:10.877Z,7.90
2019-02-22T16:25:19.442Z,7.47
2019-02-22T16:28:19.458Z,7.67
2019-02-22T16:31:22.897Z,8.03
2019-02-22T16:34:26.313Z,8.47
2019-02-22T16:37:29.749Z,8.83
2019-02-22T16:40:33.188Z,9.10
2019-02-22T16:43:36.620Z,8.53
2019-02-22T16:46:40.056Z,8.27
2019-02-22T16:49:43.497Z,9.13
2019-02-22T16:52:46.928Z,8.67
2019-02-22T16:55:50.372Z,9.43
2019-02-22T16:58:53.793Z,9.10
2019-02-22T17:01:57.242Z,8.43
2019-02-22T17:05:00.668Z,9.10
2019-02-22T17:08:04.116Z,9.50
2019-02-22T17:11:07.544Z,9.50
2019-02-22T17:14:10.961Z,9.40
2019-02-22T17:17:14.399Z,9.43
2019-02-22T17:20:17.840Z,10.07
2019-02-22T17:23:21.249Z,9.00
2019-02-22T17:26:24.733Z,9.30
2019-02-22T17:29:28.233Z,10.53
2019-02-22T17:32:33.890Z,10.00
2019-02-22T17:35:36.813Z,9.73
2019-02-22T17:38:40.249Z,10.03
2019-02-22T17:41:43.678Z,9.77
2019-02-22T17:44:47.093Z,9.80
2019-02-22T17:47:56.480Z,9.87
2019-02-22T17:50:59.888Z,10.43
2019-02-22T17:54:03.337Z,10.87
2019-02-22T17:57:06.766Z,10.07
2019-02-22T18:00:16.373Z,10.70
2019-02-22T18:03:19.878Z,10.53
2019-02-22T18:06:23.309Z,9.77
2019-02-22T18:09:26.749Z,10.37
2019-02-22T18:12:31.720Z,10.93
2019-02-22T18:15:35.166Z,11.53
2019-02-22T18:19:10.038Z,11.03
2019-02-22T18:22:27.384Z,12.43
2019-02-22T18:25:31.719Z,11.63
2019-02-22T18:28:35.149Z,12.20
2019-02-22T18:31:38.588Z,12.63
2019-02-22T18:34:43.982Z,12.97
2019-02-22T18:37:49.289Z,12.17
2019-02-22T18:41:06.629Z,12.47
2019-02-22T18:44:11.056Z,12.70
2019-02-22T18:47:19.274Z,13.33
2019-02-22T18:50:36.390Z,14.93
2019-02-22T18:53:59.436Z,12.90
2019-02-22T18:57:02.853Z,14.20
2019-02-22T19:00:13.476Z,14.07
2019-02-22T19:03:16.897Z,13.97
2019-02-22T19:06:21.241Z,15.20
2019-02-22T19:09:25.657Z,15.20
2019-02-22T19:12:29.073Z,14.90
2019-02-22T19:15:59.753Z,15.33
2019-02-22T19:19:03.172Z,14.97
2019-02-22T19:22:06.615Z,14.73
2019-02-22T19:25:10.396Z,14.87
2019-02-22T19:28:16.884Z,16.50
2019-02-22T19:31:20.301Z,15.47
2019-02-22T19:34:30.741Z,14.87
2019-02-22T19:38:03.160Z,15.27
2019-02-22T19:41:26.034Z,14.87
2019-02-22T19:44:40.816Z,15.73
2019-02-22T19:47:48.217Z,14.63
2019-02-22T19:51:11.140Z,16.30
2019-02-22T19:54:22.361Z,15.23
2019-02-22T19:57:25.781Z,13.93
2019-02-22T20:00:29.237Z,14.63
2019-02-22T20:03:34.584Z,14.80
2019-02-22T20:06:38.058Z,15.90
2019-02-22T20:09:41.481Z,14.47
2019-02-22T20:12:44.893Z,14.17
2019-02-22T20:15:54.245Z,15.97
2019-02-22T20:18:57.670Z,14.77
2019-02-22T20:22:01.161Z,14.53
2019-02-22T20:25:16.734Z,14.47
2019-02-22T20:28:20.181Z,15.10
2019-02-22T20:31:23.600Z,14.07
2019-02-22T20:34:27.044Z,15.00
2019-02-22T20:37:32.449Z,14.73
2019-02-22T20:40:35.897Z,14.90
2019-02-22T20:43:51.360Z,14.90
2019-02-22T20:46:54.800Z,15.07
2019-02-22T20:49:58.255Z,13.17
2019-02-22T20:53:01.669Z,12.63
2019-02-22T20:56:05.124Z,13.63
2019-02-22T20:59:08.595Z,12.30
2019-02-22T21:02:12.016Z,12.80
2019-02-22T21:05:15.524Z,12.43
2019-02-22T21:08:18.940Z,11.90
2019-02-22T21:11:25.645Z,12.87
2019-02-22T21:14:29.061Z,13.30
2019-02-22T21:17:32.604Z,12.23
2019-02-22T21:20:36.020Z,12.93
2019-02-22T21:23:46.190Z,12.27
2019-02-22T21:27:00.941Z,12.17
2019-02-22T21:30:13.275Z,12.00
2019-02-22T21:33:32.928Z,12.47
2019-02-22T21:36:40.036Z,12.47
2019-02-22T21:39:43.548Z,11.70
2019-02-22T21:42:46.977Z,12.83
2019-02-22T21:45:50.397Z,11.70
2019-02-22T21:48:53.840Z,11.33
2019-02-22T21:51:57.261Z,11.13
2019-02-22T21:55:00.698Z,11.87
2019-02-22T21:58:04.112Z,12.23
2019-02-22T22:01:07.557Z,12.23
2019-02-22T22:04:11.004Z,11.97
2019-02-22T22:07:14.437Z,11.80
2019-02-22T22:10:17.882Z,12.50
2019-02-22T22:13:24.993Z,12.27
2019-02-22T22:16:28.429Z,12.87
2019-02-22T22:19:42.968Z,12.23
2019-02-22T22:22:47.396Z,11.23
2019-02-22T22:25:51.797Z,10.50
2019-02-22T22:29:13.675Z,11.33
2019-02-22T22:32:17.083Z,9.93
2019-02-22T22:35:20.521Z,10.17
2019-02-22T22:38:23.960Z,11.00
2019-02-22T22:41:27.417Z,10.83
2019-02-22T22:44:30.841Z,11.40
2019-02-22T22:47:42.400Z,10.13
2019-02-22T22:50:49.801Z,10.87
2019-02-22T22:53:53.401Z,11.37
2019-02-22T22:56:56.845Z,11.33
2019-02-22T23:00:00.351Z,11.23
2019-02-22T23:03:03.785Z,12.33
2019-02-22T23:06:07.217Z,11.53
2019-02-22T23:09:12.734Z,11.90
2019-02-22T23:12:16.185Z,13.60
2019-02-22T23:15:38.132Z,12.90
2019-02-22T23:18:48.237Z,13.07
2019-02-22T23:22:01.607Z,12.40
2019-02-22T23:25:07.538Z,15.00
2019-02-22T23:28:10.978Z,13.50
2019-02-22T23:31:14.401Z,15.13
2019-02-22T23:34:18.136Z,15.10
2019-02-22T23:37:26.652Z,15.87
2019-02-22T23:40:31.000Z,16.30
2019-02-22T23:43:34.412Z,15.47
2019-02-22T23:46:57.301Z,16.67
2019-02-22T23:50:00.746Z,15.47
2019-02-22T23:53:04.160Z,16.00
2019-02-22T23:56:07.605Z,16.80
2019-02-22T23:59:11.053Z,16.73
